Strona główna
METAR-TAF:

METAR-TAF

Lotnisko :

Port lotniczy Koror

Koror, Babeldaob, Palau

Szerokość geograficzna: 07-22N, Długość geograficzna: 134-32E, wysokość: 54 m

Aktualna obserwacja pogody

Raport powstał 52 minut temu, godzina 01:50 UTC
Wiatr 3 kt od południowo-południowy zachód
Temperatura 28°C
Wilgotność 84%
Ciśnienie 1010 hPa
Widzialność: 20.9 km
Przerywane chmury na wysokości 1500 ft, Cumulonimbus.
Przerywane chmury na wysokości 11000 ft
Zachmurzenie całkowite na wysokości 29000 ft
słaby przelotny opad deszczu

METAR: PTRO 160150Z 20003KT 13SM -SHRA BKN015CB BKN110 OVC290 28/25 A2983 RMK CB ALQDS

czas: 11:42 (02:42 UTC)

Prognoza

Raport powstał 3 godziny i 0 minut temu, godzina 23:42 UTC
Prognoza ważna od 16 godzina 00 UTC do 16 godzina 24 UTC
Wiatr 7 kt od zachodnio-północny zachód
Widzialność: 10 km
Rozproszone chmury na wysokości 1700 ft
Przerywane chmury na wysokości 12000 ft
przelotny w pobliże

TAF: PTRO 152342Z 1600/1624 30007KT P6SM VCSH SCT017 BKN120

Obserwacja i prognoza pogody dla ponad 4000 lotnisk (raport METAR i TAF).

Dostępne stacje oznaczono żółtymi i czerwonymi punktami na mapie.

Najedź kursorem aby zobaczyć nazwę stacji.

Kliknij aby zobaczyć obserwacje i prognozy pogody.

Aby zmienić mapę: kliknij na zielony przycisk z czarnym krzyżykiem, aby powiększyć; na zielony przycisk z myślnikiem, aby pomniejszyć; na zielone strzałki, aby przejść do map sąsiednich.


METAR-TAF: